createdAt,value
2018-07-25T00:02:05.906Z,4.40
2018-07-25T00:04:33.164Z,3.95
2018-07-25T00:07:00.389Z,4.33
2018-07-25T00:09:27.608Z,4.25
2018-07-25T00:11:54.824Z,4.78
2018-07-25T00:14:22.044Z,4.47
2018-07-25T00:16:49.264Z,5.00
2018-07-25T00:19:16.529Z,4.72
2018-07-25T00:21:43.727Z,4.80
2018-07-25T00:24:10.980Z,4.90
2018-07-25T00:26:38.241Z,4.45
2018-07-25T00:29:05.477Z,4.75
2018-07-25T00:31:32.789Z,4.70
2018-07-25T00:34:00.049Z,4.50
2018-07-25T00:36:27.276Z,4.63
2018-07-25T00:38:54.560Z,4.30
2018-07-25T00:41:22.012Z,4.30
2018-07-25T00:43:49.204Z,4.10
2018-07-25T00:46:16.458Z,4.67
2018-07-25T00:48:43.661Z,4.30
2018-07-25T00:51:10.861Z,4.12
2018-07-25T00:53:38.208Z,4.37
2018-07-25T00:56:05.407Z,4.50
2018-07-25T00:58:32.755Z,4.10
2018-07-25T01:01:00.065Z,3.42
2018-07-25T01:03:27.291Z,3.83
2018-07-25T01:05:54.521Z,3.60
2018-07-25T01:08:21.733Z,3.42
2018-07-25T01:10:48.917Z,3.65
2018-07-25T01:13:16.180Z,3.52
2018-07-25T01:15:43.384Z,3.08
2018-07-25T01:18:10.599Z,3.10
2018-07-25T01:20:37.804Z,2.87
2018-07-25T01:23:05.056Z,3.40
2018-07-25T01:25:32.262Z,3.20
2018-07-25T01:27:59.436Z,3.00
2018-07-25T01:30:26.699Z,3.45
2018-07-25T01:32:53.935Z,3.40
2018-07-25T01:35:21.115Z,2.90
2018-07-25T01:37:48.315Z,2.80
2018-07-25T01:40:15.534Z,3.17
2018-07-25T01:42:42.728Z,3.50
2018-07-25T01:45:09.989Z,2.90
2018-07-25T01:47:37.594Z,3.17
2018-07-25T01:50:04.902Z,3.25
2018-07-25T01:52:32.080Z,2.90
2018-07-25T01:54:59.333Z,3.40
2018-07-25T01:57:26.597Z,2.90
2018-07-25T01:59:53.803Z,2.90
2018-07-25T02:02:21.068Z,2.80
2018-07-25T02:04:48.288Z,2.80
2018-07-25T02:07:15.492Z,3.15
2018-07-25T02:09:42.931Z,3.20
2018-07-25T02:12:10.124Z,2.95
2018-07-25T02:14:37.356Z,3.10
2018-07-25T02:17:04.625Z,3.50
2018-07-25T02:19:31.973Z,3.20
2018-07-25T02:21:59.106Z,3.27
2018-07-25T02:24:26.348Z,3.75
2018-07-25T02:26:53.524Z,3.40
2018-07-25T02:29:20.728Z,3.60
2018-07-25T02:31:47.921Z,3.20
2018-07-25T02:34:19.508Z,3.25
2018-07-25T02:36:46.832Z,3.12
2018-07-25T02:39:14.037Z,3.30
2018-07-25T02:41:42.088Z,3.20
2018-07-25T02:44:09.306Z,3.10
2018-07-25T02:46:36.616Z,3.40
2018-07-25T02:49:03.960Z,3.12
2018-07-25T02:51:32.065Z,3.20
2018-07-25T02:53:59.372Z,2.80
2018-07-25T02:56:26.648Z,3.17
2018-07-25T02:58:53.874Z,3.20
2018-07-25T03:01:21.109Z,3.30
2018-07-25T03:03:48.346Z,3.30
2018-07-25T03:06:15.922Z,3.60
2018-07-25T03:08:43.114Z,3.65
2018-07-25T03:11:10.436Z,3.40
2018-07-25T03:13:37.675Z,3.40
2018-07-25T03:16:06.929Z,3.87
2018-07-25T03:18:34.266Z,3.23
2018-07-25T03:21:01.584Z,3.53
2018-07-25T03:23:29.845Z,4.03
2018-07-25T03:25:57.044Z,4.03
2018-07-25T03:28:24.652Z,4.13
2018-07-25T03:30:52.333Z,3.20
2018-07-25T03:33:19.744Z,3.70
2018-07-25T03:35:46.933Z,4.43
2018-07-25T03:38:14.138Z,3.87
2018-07-25T03:40:41.383Z,3.67
2018-07-25T03:43:08.688Z,4.23
2018-07-25T03:45:35.893Z,4.73
2018-07-25T03:48:03.150Z,3.70
2018-07-25T03:50:30.317Z,4.33
2018-07-25T03:52:57.612Z,4.50
2018-07-25T03:55:24.792Z,4.40
2018-07-25T03:57:52.076Z,4.70
2018-07-25T04:00:19.298Z,4.40
2018-07-25T04:02:46.514Z,5.20
2018-07-25T04:05:13.711Z,4.60
2018-07-25T04:07:40.971Z,4.90
2018-07-25T04:10:08.182Z,4.90
2018-07-25T04:12:35.428Z,7.03
2018-07-25T04:15:02.748Z,5.47
2018-07-25T04:17:35.938Z,5.10
2018-07-25T04:20:03.224Z,8.53
2018-07-25T04:22:31.233Z,5.77
2018-07-25T04:24:58.664Z,5.80
2018-07-25T04:27:25.873Z,6.93
2018-07-25T04:29:53.048Z,6.23
2018-07-25T04:32:20.264Z,6.33
2018-07-25T04:34:47.463Z,6.60
2018-07-25T04:37:14.672Z,7.00
2018-07-25T04:39:41.896Z,8.83
2018-07-25T04:42:09.179Z,7.83
2018-07-25T04:44:36.423Z,7.50
2018-07-25T04:47:03.788Z,7.60
2018-07-25T04:49:31.031Z,7.10
2018-07-25T04:51:58.231Z,5.83
2018-07-25T04:54:25.440Z,5.53
2018-07-25T04:56:52.632Z,6.80
2018-07-25T04:59:19.831Z,6.83
2018-07-25T05:01:47.136Z,5.90
2018-07-25T05:04:14.437Z,5.83
2018-07-25T05:06:41.699Z,5.90
2018-07-25T05:09:09.862Z,5.70
2018-07-25T05:11:37.062Z,5.83
2018-07-25T05:14:04.483Z,6.27
2018-07-25T05:16:31.712Z,5.70
2018-07-25T05:18:58.912Z,5.90
2018-07-25T05:21:26.112Z,5.47
2018-07-25T05:23:53.448Z,5.57
2018-07-25T05:26:20.639Z,5.33
2018-07-25T05:28:47.817Z,6.50
2018-07-25T05:31:15.026Z,5.30
2018-07-25T05:33:42.352Z,6.37
2018-07-25T05:36:09.591Z,6.70
2018-07-25T05:38:36.808Z,5.70
2018-07-25T05:41:04.132Z,5.60
2018-07-25T05:43:31.317Z,6.43
2018-07-25T05:45:58.593Z,6.60
2018-07-25T05:48:25.843Z,7.20
2018-07-25T05:50:53.031Z,6.57
2018-07-25T05:53:20.283Z,7.57
2018-07-25T05:55:47.536Z,5.90
2018-07-25T05:58:15.556Z,6.40
2018-07-25T06:00:42.794Z,6.10
2018-07-25T06:03:10.174Z,6.30
2018-07-25T06:05:37.312Z,5.80
2018-07-25T06:08:04.715Z,6.57
2018-07-25T06:10:31.914Z,6.13
2018-07-25T06:12:59.204Z,6.93
2018-07-25T06:15:27.136Z,6.50
2018-07-25T06:17:54.370Z,6.80
2018-07-25T06:20:21.564Z,6.50
2018-07-25T06:22:48.908Z,7.30
2018-07-25T06:25:16.137Z,6.53
2018-07-25T06:27:43.869Z,6.47
2018-07-25T06:30:11.056Z,7.27
2018-07-25T06:32:38.307Z,7.00
2018-07-25T06:35:05.545Z,6.43
2018-07-25T06:37:32.857Z,6.90
2018-07-25T06:40:00.093Z,6.90
2018-07-25T06:42:27.281Z,6.40
2018-07-25T06:44:54.464Z,6.00
2018-07-25T06:47:21.772Z,7.13
2018-07-25T11:19:10.387Z,4.03
2018-07-25T11:21:37.621Z,3.50
2018-07-25T11:24:04.977Z,3.30
2018-07-25T11:31:25.738Z,3.12
2018-07-25T11:33:52.900Z,3.40
2018-07-25T11:36:20.166Z,3.15
2018-07-25T11:38:47.399Z,3.27
2018-07-25T11:43:41.453Z,2.80
2018-07-25T11:46:08.676Z,3.10
2018-07-25T11:48:36.028Z,2.58
2018-07-25T11:51:03.268Z,2.83
2018-07-25T11:53:30.473Z,2.67
2018-07-25T11:55:57.781Z,2.47
2018-07-25T11:58:25.312Z,2.70
2018-07-25T13:02:02.467Z,2.40
2018-07-25T13:11:49.985Z,2.67
2018-07-25T13:14:17.224Z,2.40
2018-07-25T13:16:44.461Z,2.85
2018-07-25T13:19:11.746Z,2.62
2018-07-25T13:21:38.980Z,2.10
2018-07-25T13:24:06.208Z,2.10
2018-07-25T13:26:33.479Z,2.10
2018-07-25T13:29:00.900Z,2.50
2018-07-25T13:31:28.129Z,2.60
2018-07-25T13:33:55.426Z,2.20
2018-07-25T13:36:22.684Z,2.20
2018-07-25T13:38:49.923Z,2.00
2018-07-25T13:41:17.154Z,2.20
2018-07-25T13:43:44.388Z,2.30
2018-07-25T14:08:20.376Z,3.00
2018-07-25T14:10:47.615Z,3.30
2018-07-25T14:13:14.868Z,3.50
2018-07-25T14:15:42.159Z,3.80
2018-07-25T14:18:09.409Z,3.30
2018-07-25T14:20:36.560Z,3.50
2018-07-25T14:23:04.088Z,3.67
2018-07-25T14:25:31.340Z,4.08
2018-07-25T14:27:58.823Z,5.47
2018-07-25T14:30:26.229Z,5.08
2018-07-25T14:32:53.343Z,8.83
2018-07-25T14:35:20.693Z,13.53
2018-07-25T14:37:47.913Z,11.53
2018-07-25T14:40:15.294Z,15.00
2018-07-25T14:42:42.410Z,18.00
2018-07-25T14:45:09.663Z,17.50
2018-07-25T14:47:36.888Z,9.67
2018-07-25T14:50:06.050Z,9.23
2018-07-25T14:52:33.304Z,9.17
2018-07-25T14:55:00.887Z,8.18
2018-07-25T14:57:28.183Z,6.80
2018-07-25T14:59:55.415Z,8.57
2018-07-25T15:02:22.774Z,8.90
2018-07-25T15:04:49.968Z,11.30
2018-07-25T15:07:17.198Z,10.58
2018-07-25T15:12:11.218Z,10.13
2018-07-25T15:14:38.490Z,8.83
2018-07-25T15:17:05.895Z,9.30
2018-07-25T15:19:33.102Z,8.50
2018-07-25T15:22:00.376Z,7.30
2018-07-25T15:24:27.678Z,7.43
2018-07-25T15:26:54.962Z,7.15
2018-07-25T15:29:22.241Z,8.10
2018-07-25T15:31:49.762Z,7.33
2018-07-25T15:34:16.990Z,7.15
2018-07-25T15:36:47.980Z,7.00
2018-07-25T15:39:32.113Z,6.72
2018-07-25T15:41:59.317Z,17.50
2018-07-25T15:44:27.183Z,33.03
2018-07-25T15:46:54.765Z,9.03
2018-07-25T15:49:21.976Z,6.30
2018-07-25T15:51:49.208Z,6.10
2018-07-25T15:54:16.760Z,6.30
2018-07-25T15:56:44.009Z,6.22
2018-07-25T15:59:11.436Z,6.00
2018-07-25T16:01:38.720Z,10.90
2018-07-25T16:04:06.148Z,14.00
2018-07-25T16:06:33.498Z,6.40
2018-07-25T16:09:00.734Z,5.12
2018-07-25T16:11:28.013Z,4.70
2018-07-25T16:13:55.291Z,4.90
2018-07-25T16:16:22.687Z,5.10
2018-07-25T16:18:50.331Z,5.03
2018-07-25T16:21:18.226Z,4.40
2018-07-25T16:23:45.564Z,4.90
2018-07-25T16:26:12.872Z,4.92
2018-07-25T16:28:40.079Z,5.17
2018-07-25T16:31:07.728Z,4.60
2018-07-25T16:33:34.982Z,4.85
2018-07-25T16:36:02.379Z,4.50
2018-07-25T16:38:29.585Z,10.45
2018-07-25T16:40:56.889Z,4.40
2018-07-25T16:43:24.200Z,4.00
2018-07-25T16:45:51.421Z,4.15
2018-07-25T16:48:18.696Z,4.45
2018-07-25T16:50:45.954Z,4.37
2018-07-25T16:53:13.273Z,4.42
2018-07-25T16:55:40.620Z,4.60
2018-07-25T16:58:08.430Z,3.90
2018-07-25T17:00:35.774Z,4.10
2018-07-25T17:03:03.127Z,4.20
2018-07-25T17:05:30.381Z,3.80
2018-07-25T17:07:57.593Z,3.70
2018-07-25T17:10:24.816Z,3.67
2018-07-25T17:12:52.342Z,3.60
2018-07-25T17:15:19.521Z,4.20
2018-07-25T17:17:46.834Z,4.08
2018-07-25T17:20:14.082Z,4.20
2018-07-25T17:22:41.295Z,4.20
2018-07-25T17:25:08.486Z,4.25
2018-07-25T17:27:35.859Z,4.40
2018-07-25T17:30:03.109Z,6.70
2018-07-25T17:32:30.498Z,5.00
2018-07-25T17:34:57.800Z,4.67
2018-07-25T17:37:25.016Z,3.95
2018-07-25T17:39:52.270Z,4.58
2018-07-25T17:42:19.488Z,5.00
2018-07-25T17:44:46.704Z,4.00
2018-07-25T17:47:13.920Z,4.90
2018-07-25T17:49:41.713Z,4.70
2018-07-25T17:52:10.368Z,4.70
2018-07-25T17:54:37.666Z,4.20
2018-07-25T17:57:04.943Z,4.12
2018-07-25T17:59:32.234Z,4.53
2018-07-25T18:01:59.420Z,4.10
2018-07-25T18:04:26.673Z,5.30
2018-07-25T18:06:53.980Z,4.90
2018-07-25T18:09:21.212Z,4.80
2018-07-25T18:11:48.474Z,4.50
2018-07-25T18:14:16.240Z,4.60
2018-07-25T18:16:44.409Z,4.17
2018-07-25T18:19:12.323Z,3.80
2018-07-25T18:21:40.077Z,4.03
2018-07-25T18:24:07.416Z,4.67
2018-07-25T18:26:34.646Z,4.50
2018-07-25T18:29:01.949Z,4.20
2018-07-25T18:31:29.158Z,4.95
2018-07-25T18:33:56.464Z,10.75
2018-07-25T18:36:23.713Z,10.05
2018-07-25T18:38:51.260Z,5.73
2018-07-25T18:41:18.592Z,4.80
2018-07-25T18:43:45.865Z,4.30
2018-07-25T18:46:13.130Z,4.20
2018-07-25T18:48:40.615Z,4.00
2018-07-25T18:51:07.815Z,4.53
2018-07-25T18:53:35.872Z,4.25
2018-07-25T18:56:03.146Z,4.50
2018-07-25T18:58:30.364Z,4.33
2018-07-25T19:01:02.423Z,4.22
2018-07-25T19:03:29.737Z,3.60
2018-07-25T19:05:56.976Z,4.28
2018-07-25T19:08:24.366Z,4.30
2018-07-25T19:10:51.635Z,4.42
2018-07-25T19:13:24.556Z,6.55
2018-07-25T19:15:51.818Z,21.82
2018-07-25T19:18:19.088Z,10.80
2018-07-25T19:20:46.592Z,4.72
2018-07-25T19:23:13.803Z,4.70
2018-07-25T19:25:41.068Z,4.87
2018-07-25T19:28:08.316Z,4.60
2018-07-25T19:30:35.528Z,4.60
2018-07-25T19:33:02.785Z,4.63
2018-07-25T19:35:30.035Z,4.10
2018-07-25T19:37:57.261Z,4.50
2018-07-25T19:40:24.697Z,4.73
2018-07-25T19:42:53.510Z,4.43
2018-07-25T19:45:21.344Z,4.57
2018-07-25T19:47:48.651Z,4.97
2018-07-25T19:50:16.417Z,4.50
2018-07-25T19:52:43.617Z,5.00
2018-07-25T19:55:10.845Z,4.87
2018-07-25T19:57:38.147Z,5.40
2018-07-25T20:00:05.781Z,5.50
2018-07-25T20:02:32.987Z,5.47
2018-07-25T20:05:00.855Z,5.55
2018-07-25T20:07:28.101Z,5.60
2018-07-25T20:09:55.381Z,5.20
2018-07-25T20:12:22.628Z,4.90
2018-07-25T20:14:55.658Z,5.20
2018-07-25T20:17:22.892Z,5.50
2018-07-25T20:19:50.258Z,5.53
2018-07-25T20:22:17.426Z,5.42
2018-07-25T20:24:44.649Z,5.17
2018-07-25T20:27:11.957Z,5.50
2018-07-25T20:29:39.283Z,5.53
2018-07-25T20:32:06.493Z,5.80
2018-07-25T20:34:33.697Z,6.20
2018-07-25T20:37:00.977Z,5.50
2018-07-25T20:39:28.228Z,5.70
2018-07-25T20:41:55.639Z,5.30
2018-07-25T20:44:22.881Z,5.47
2018-07-25T20:46:50.192Z,5.78
2018-07-25T20:49:17.463Z,6.45
2018-07-25T20:51:44.788Z,5.53
2018-07-25T20:54:11.969Z,6.30
2018-07-25T20:56:39.137Z,6.10
2018-07-25T20:59:06.802Z,6.10
2018-07-25T21:01:34.033Z,6.05
2018-07-25T21:04:01.531Z,7.10
2018-07-25T21:06:29.911Z,7.10
2018-07-25T21:08:57.145Z,6.40
2018-07-25T21:11:24.359Z,6.97
2018-07-25T21:13:51.597Z,7.15
2018-07-25T21:16:18.869Z,7.57
2018-07-25T21:18:46.101Z,7.70
2018-07-25T21:21:13.434Z,7.23
2018-07-25T21:23:40.684Z,7.00
2018-07-25T21:26:08.048Z,7.33
2018-07-25T21:28:35.259Z,10.87
2018-07-25T21:31:02.547Z,10.10
2018-07-25T21:33:29.870Z,8.40
2018-07-25T21:35:57.196Z,7.87
2018-07-25T21:38:24.521Z,6.90
2018-07-25T21:40:51.713Z,7.10
2018-07-25T21:43:19.004Z,7.00
2018-07-25T21:45:46.228Z,7.40
2018-07-25T21:48:15.428Z,7.12
2018-07-25T21:50:43.261Z,6.80
2018-07-25T21:53:10.581Z,6.58
2018-07-25T21:55:38.500Z,6.67
2018-07-25T21:58:05.726Z,6.63
2018-07-25T22:00:33.411Z,6.80
2018-07-25T22:03:00.701Z,6.50
2018-07-25T22:05:27.985Z,6.50
2018-07-25T22:07:55.221Z,6.65
2018-07-25T22:10:25.077Z,7.22
2018-07-25T22:12:52.543Z,7.12
2018-07-25T22:15:20.028Z,7.20
2018-07-25T22:17:47.258Z,7.50
2018-07-25T22:20:14.687Z,7.22
2018-07-25T22:22:41.884Z,7.28
2018-07-25T22:25:09.756Z,6.72
2018-07-25T22:27:37.986Z,7.00
2018-07-25T22:30:05.341Z,6.50
2018-07-25T22:32:32.590Z,6.17
2018-07-25T22:35:00.876Z,6.17
2018-07-25T22:37:28.055Z,6.60
2018-07-25T22:39:55.275Z,6.20
2018-07-25T22:42:22.496Z,6.60
2018-07-25T22:44:49.743Z,6.60
2018-07-25T22:47:17.246Z,6.53
2018-07-25T22:49:44.430Z,5.70
2018-07-25T22:52:11.595Z,6.37
2018-07-25T22:54:38.827Z,6.90
2018-07-25T22:57:06.038Z,6.80
2018-07-25T22:59:33.256Z,7.53
2018-07-25T23:02:00.756Z,7.12
2018-07-25T23:04:27.987Z,6.80
2018-07-25T23:06:55.159Z,7.00
2018-07-25T23:09:22.492Z,7.30
2018-07-25T23:11:49.857Z,7.53
2018-07-25T23:14:17.062Z,7.17
2018-07-25T23:16:44.362Z,6.67
2018-07-25T23:19:11.575Z,6.70
2018-07-25T23:21:38.776Z,6.90
2018-07-25T23:24:06.033Z,6.85
2018-07-25T23:26:33.272Z,6.85
2018-07-25T23:29:00.452Z,6.90
2018-07-25T23:31:28.266Z,7.00
2018-07-25T23:33:55.585Z,7.20
2018-07-25T23:36:22.822Z,7.08
2018-07-25T23:38:50.102Z,6.80
2018-07-25T23:41:17.326Z,6.83
2018-07-25T23:43:44.547Z,6.70
2018-07-25T23:46:11.784Z,6.78
2018-07-25T23:48:39.008Z,6.70
2018-07-25T23:51:06.336Z,6.55
2018-07-25T23:53:33.640Z,7.10
2018-07-25T23:56:00.886Z,7.08
2018-07-25T23:58:28.113Z,7.42
